SBOSBO LJU / LJLJ
Speedbird OnlineSpeedbird Online LJU / LJLJ

Ljubljana Jože Pučnik Airport
09:30 11.1°C

Location Ljubljana, Slovenia
Latitude: 46.223701
Longitude: 14.4576
Web Airport Website | Wikipedia
Altitude 388 Meter / 1273 Feet
Distance 1,199 KM / 745 Miles
from London.
Time Zone UTC +2 hours (Europe/Ljubljana)
Codes IATA: LJU
ICAO: LJLJ
Currency £1 equals EUR 1.15
Runways
RunwayLength (m)Surface
123300Asphalt
303300Asphalt
Radio
TypeDescriptionFrequency
A/DAPP135.275
ATISalso on VOR DOL 112.700128.175
GND121.625
HANDLING & GA131.4
TWRTWR118
Live ATC
METAR LJLJ 060700Z VRB02KT CAVOK 10/10 Q1028 NOSIG
TAF TAF LJLJ 060500Z 0606/0706 VRB02KT 9999 FEW001 PROB30 TEMPO 0606/0607 0500 FG BKN001
Weather As Of 06 Oct 2022 09:30
Description Clear sky
Wind 4 km/h from North (0°)
Cloud Cover 0%
Precipitation Rain: none, Snow: none
Sunrise 07:06
Sunset 18:33
Lounges Business Lounge , Departures Areas
Rotations During the last 90 days there were
54 flights from LHR
56 flights to LHR


© 2017-2022 Speedbird Online